sensor_id;sensor_type;location;lat;lon;timestamp;temperature;humidity
49218;DHT22;35045;51.194;7.268;2023-08-06T00:01:58;15.50;99.90
49218;DHT22;35045;51.194;7.268;2023-08-06T00:04:24;15.50;99.90
49218;DHT22;35045;51.194;7.268;2023-08-06T00:06:50;15.50;99.90
49218;DHT22;35045;51.194;7.268;2023-08-06T00:09:16;15.50;99.90
49218;DHT22;35045;51.194;7.268;2023-08-06T00:11:42;15.50;99.90
49218;DHT22;35045;51.194;7.268;2023-08-06T00:14:09;15.50;99.90
49218;DHT22;35045;51.194;7.268;2023-08-06T00:16:35;15.50;99.90
49218;DHT22;35045;51.194;7.268;2023-08-06T00:19:01;15.50;99.90
49218;DHT22;35045;51.194;7.268;2023-08-06T00:21:28;15.50;99.90
49218;DHT22;35045;51.194;7.268;2023-08-06T00:23:54;15.50;99.90
49218;DHT22;35045;51.194;7.268;2023-08-06T00:26:20;15.50;99.90
49218;DHT22;35045;51.194;7.268;2023-08-06T00:28:46;15.50;99.90
49218;DHT22;35045;51.194;7.268;2023-08-06T00:31:12;15.60;99.90
49218;DHT22;35045;51.194;7.268;2023-08-06T00:33:38;15.60;99.90
49218;DHT22;35045;51.194;7.268;2023-08-06T00:36:04;15.60;99.90
49218;DHT22;35045;51.194;7.268;2023-08-06T00:38:30;15.60;99.90
49218;DHT22;35045;51.194;7.268;2023-08-06T00:40:56;15.60;99.90
49218;DHT22;35045;51.194;7.268;2023-08-06T00:43:22;15.60;99.90
49218;DHT22;35045;51.194;7.268;2023-08-06T00:45:48;15.60;99.90
49218;DHT22;35045;51.194;7.268;2023-08-06T00:48:15;15.60;99.90
49218;DHT22;35045;51.194;7.268;2023-08-06T00:50:41;15.60;99.90
49218;DHT22;35045;51.194;7.268;2023-08-06T00:53:07;15.50;99.90
49218;DHT22;35045;51.194;7.268;2023-08-06T00:55:34;15.50;99.90
49218;DHT22;35045;51.194;7.268;2023-08-06T00:58:00;15.40;99.90
49218;DHT22;35045;51.194;7.268;2023-08-06T01:00:29;15.30;99.90
49218;DHT22;35045;51.194;7.268;2023-08-06T01:02:55;15.30;99.90
49218;DHT22;35045;51.194;7.268;2023-08-06T01:05:21;15.30;99.90
49218;DHT22;35045;51.194;7.268;2023-08-06T01:12:43;15.30;99.90
49218;DHT22;35045;51.194;7.268;2023-08-06T01:15:32;15.30;99.90
49218;DHT22;35045;51.194;7.268;2023-08-06T01:17:57;15.30;99.90
49218;DHT22;35045;51.194;7.268;2023-08-06T01:20:30;15.30;99.90
49218;DHT22;35045;51.194;7.268;2023-08-06T01:22:56;15.20;99.90
49218;DHT22;35045;51.194;7.268;2023-08-06T01:25:22;15.20;99.90
49218;DHT22;35045;51.194;7.268;2023-08-06T01:27:50;15.20;99.90
49218;DHT22;35045;51.194;7.268;2023-08-06T01:30:19;15.20;99.90
49218;DHT22;35045;51.194;7.268;2023-08-06T01:32:48;15.10;99.90
49218;DHT22;35045;51.194;7.268;2023-08-06T01:35:15;15.10;99.90
49218;DHT22;35045;51.194;7.268;2023-08-06T01:37:42;15.00;99.90
49218;DHT22;35045;51.194;7.268;2023-08-06T01:40:11;15.10;99.90
49218;DHT22;35045;51.194;7.268;2023-08-06T01:42:38;15.10;99.90
49218;DHT22;35045;51.194;7.268;2023-08-06T01:45:05;15.10;99.90
49218;DHT22;35045;51.194;7.268;2023-08-06T01:47:31;15.20;99.90
49218;DHT22;35045;51.194;7.268;2023-08-06T01:49:57;15.20;99.90
49218;DHT22;35045;51.194;7.268;2023-08-06T01:52:23;15.10;99.90
49218;DHT22;35045;51.194;7.268;2023-08-06T01:54:49;15.10;99.90
49218;DHT22;35045;51.194;7.268;2023-08-06T01:57:15;15.20;99.90
49218;DHT22;35045;51.194;7.268;2023-08-06T01:59:41;15.20;99.90
49218;DHT22;35045;51.194;7.268;2023-08-06T02:02:07;15.20;99.90
49218;DHT22;35045;51.194;7.268;2023-08-06T02:04:33;15.20;99.90
49218;DHT22;35045;51.194;7.268;2023-08-06T02:06:59;15.20;99.90
49218;DHT22;35045;51.194;7.268;2023-08-06T02:09:25;15.20;99.90
49218;DHT22;35045;51.194;7.268;2023-08-06T02:11:51;15.10;99.90
49218;DHT22;35045;51.194;7.268;2023-08-06T02:14:17;15.10;99.90
49218;DHT22;35045;51.194;7.268;2023-08-06T02:16:43;15.10;99.90
49218;DHT22;35045;51.194;7.268;2023-08-06T02:19:09;15.10;99.90
49218;DHT22;35045;51.194;7.268;2023-08-06T02:21:35;15.10;99.90
49218;DHT22;35045;51.194;7.268;2023-08-06T02:24:02;15.00;99.90
49218;DHT22;35045;51.194;7.268;2023-08-06T02:26:28;15.00;99.90
49218;DHT22;35045;51.194;7.268;2023-08-06T02:28:54;15.00;99.90
49218;DHT22;35045;51.194;7.268;2023-08-06T02:31:20;15.00;99.90
49218;DHT22;35045;51.194;7.268;2023-08-06T02:33:47;15.10;99.90
49218;DHT22;35045;51.194;7.268;2023-08-06T02:36:13;15.10;99.90
49218;DHT22;35045;51.194;7.268;2023-08-06T02:38:39;15.00;99.90
49218;DHT22;35045;51.194;7.268;2023-08-06T02:41:05;15.00;99.90
49218;DHT22;35045;51.194;7.268;2023-08-06T02:43:31;15.10;99.90
49218;DHT22;35045;51.194;7.268;2023-08-06T02:45:58;15.20;99.90
49218;DHT22;35045;51.194;7.268;2023-08-06T02:48:24;15.20;99.90
49218;DHT22;35045;51.194;7.268;2023-08-06T02:50:50;15.20;99.90
49218;DHT22;35045;51.194;7.268;2023-08-06T02:53:16;15.30;99.90
49218;DHT22;35045;51.194;7.268;2023-08-06T02:55:48;15.20;99.90
49218;DHT22;35045;51.194;7.268;2023-08-06T02:58:14;15.20;99.90
49218;DHT22;35045;51.194;7.268;2023-08-06T03:00:41;15.20;99.90
49218;DHT22;35045;51.194;7.268;2023-08-06T03:03:07;15.20;99.90
49218;DHT22;35045;51.194;7.268;2023-08-06T03:05:33;15.20;99.90
49218;DHT22;35045;51.194;7.268;2023-08-06T03:08:00;15.10;99.90
49218;DHT22;35045;51.194;7.268;2023-08-06T03:10:26;15.10;99.90
49218;DHT22;35045;51.194;7.268;2023-08-06T03:12:52;15.20;99.90
49218;DHT22;35045;51.194;7.268;2023-08-06T03:15:18;15.20;99.90
49218;DHT22;35045;51.194;7.268;2023-08-06T03:17:44;15.20;99.90
49218;DHT22;35045;51.194;7.268;2023-08-06T03:20:10;15.20;99.90
49218;DHT22;35045;51.194;7.268;2023-08-06T03:22:36;15.20;99.90
49218;DHT22;35045;51.194;7.268;2023-08-06T03:25:03;15.20;99.90
49218;DHT22;35045;51.194;7.268;2023-08-06T03:27:29;15.20;99.90
49218;DHT22;35045;51.194;7.268;2023-08-06T03:29:55;15.20;99.90
49218;DHT22;35045;51.194;7.268;2023-08-06T03:32:21;15.20;99.90
49218;DHT22;35045;51.194;7.268;2023-08-06T03:34:47;15.20;99.90
49218;DHT22;35045;51.194;7.268;2023-08-06T03:37:13;15.20;99.90
49218;DHT22;35045;51.194;7.268;2023-08-06T03:39:39;15.20;99.90
49218;DHT22;35045;51.194;7.268;2023-08-06T03:42:05;15.20;99.90
49218;DHT22;35045;51.194;7.268;2023-08-06T03:44:31;15.20;99.90
49218;DHT22;35045;51.194;7.268;2023-08-06T03:46:57;15.20;99.90
49218;DHT22;35045;51.194;7.268;2023-08-06T03:49:23;15.20;99.90
49218;DHT22;35045;51.194;7.268;2023-08-06T03:51:49;15.20;99.90
49218;DHT22;35045;51.194;7.268;2023-08-06T03:54:16;15.20;99.90
49218;DHT22;35045;51.194;7.268;2023-08-06T03:56:42;15.30;99.90
49218;DHT22;35045;51.194;7.268;2023-08-06T03:59:08;15.10;99.90
49218;DHT22;35045;51.194;7.268;2023-08-06T04:01:34;15.10;99.90
49218;DHT22;35045;51.194;7.268;2023-08-06T04:04:00;15.10;99.90
49218;DHT22;35045;51.194;7.268;2023-08-06T04:06:26;15.10;99.90
49218;DHT22;35045;51.194;7.268;2023-08-06T04:08:52;15.10;99.90
49218;DHT22;35045;51.194;7.268;2023-08-06T04:11:18;15.10;99.90
49218;DHT22;35045;51.194;7.268;2023-08-06T04:13:44;15.10;99.90
49218;DHT22;35045;51.194;7.268;2023-08-06T04:16:10;15.10;99.90
49218;DHT22;35045;51.194;7.268;2023-08-06T04:18:36;15.10;99.90
49218;DHT22;35045;51.194;7.268;2023-08-06T04:21:02;15.20;99.90
49218;DHT22;35045;51.194;7.268;2023-08-06T04:23:28;15.20;99.90
49218;DHT22;35045;51.194;7.268;2023-08-06T04:25:58;15.20;99.90
49218;DHT22;35045;51.194;7.268;2023-08-06T04:28:24;15.30;99.90
49218;DHT22;35045;51.194;7.268;2023-08-06T04:30:50;15.30;99.90
49218;DHT22;35045;51.194;7.268;2023-08-06T04:33:16;15.30;99.90
49218;DHT22;35045;51.194;7.268;2023-08-06T04:35:42;15.30;99.90
49218;DHT22;35045;51.194;7.268;2023-08-06T04:38:08;15.40;99.90
49218;DHT22;35045;51.194;7.268;2023-08-06T04:40:35;15.40;99.90
49218;DHT22;35045;51.194;7.268;2023-08-06T04:43:01;15.40;99.90
49218;DHT22;35045;51.194;7.268;2023-08-06T04:45:27;15.40;99.90
49218;DHT22;35045;51.194;7.268;2023-08-06T04:47:53;15.40;99.90
49218;DHT22;35045;51.194;7.268;2023-08-06T04:50:19;15.40;99.90
49218;DHT22;35045;51.194;7.268;2023-08-06T04:52:45;15.40;99.90
49218;DHT22;35045;51.194;7.268;2023-08-06T04:55:11;15.50;99.90
49218;DHT22;35045;51.194;7.268;2023-08-06T04:57:37;15.50;99.90
49218;DHT22;35045;51.194;7.268;2023-08-06T05:00:04;15.50;99.90
49218;DHT22;35045;51.194;7.268;2023-08-06T05:02:30;15.60;99.90
49218;DHT22;35045;51.194;7.268;2023-08-06T05:04:58;15.60;99.90
49218;DHT22;35045;51.194;7.268;2023-08-06T05:07:24;15.60;99.90
49218;DHT22;35045;51.194;7.268;2023-08-06T05:09:50;15.60;99.90
49218;DHT22;35045;51.194;7.268;2023-08-06T05:12:16;15.50;99.90
49218;DHT22;35045;51.194;7.268;2023-08-06T05:14:42;15.50;99.90
49218;DHT22;35045;51.194;7.268;2023-08-06T05:17:08;15.40;99.90
49218;DHT22;35045;51.194;7.268;2023-08-06T05:19:34;15.40;99.90
49218;DHT22;35045;51.194;7.268;2023-08-06T05:22:00;15.40;99.90
49218;DHT22;35045;51.194;7.268;2023-08-06T05:24:27;15.40;99.90
49218;DHT22;35045;51.194;7.268;2023-08-06T05:26:53;15.40;99.90
49218;DHT22;35045;51.194;7.268;2023-08-06T05:29:19;15.30;99.90
49218;DHT22;35045;51.194;7.268;2023-08-06T05:31:45;15.30;99.90
49218;DHT22;35045;51.194;7.268;2023-08-06T05:34:11;15.30;99.90
49218;DHT22;35045;51.194;7.268;2023-08-06T05:36:38;15.30;99.90
49218;DHT22;35045;51.194;7.268;2023-08-06T05:39:04;15.30;99.90
49218;DHT22;35045;51.194;7.268;2023-08-06T05:41:30;15.30;99.90
49218;DHT22;35045;51.194;7.268;2023-08-06T05:43:56;15.30;99.90
49218;DHT22;35045;51.194;7.268;2023-08-06T05:46:22;15.40;99.90
49218;DHT22;35045;51.194;7.268;2023-08-06T05:48:49;15.40;99.90
49218;DHT22;35045;51.194;7.268;2023-08-06T05:51:16;15.40;99.90
49218;DHT22;35045;51.194;7.268;2023-08-06T05:53:42;15.40;99.90
49218;DHT22;35045;51.194;7.268;2023-08-06T05:56:08;15.50;99.90
49218;DHT22;35045;51.194;7.268;2023-08-06T05:58:34;15.50;99.90
49218;DHT22;35045;51.194;7.268;2023-08-06T06:01:01;15.50;99.90
49218;DHT22;35045;51.194;7.268;2023-08-06T06:03:26;15.50;99.90
49218;DHT22;35045;51.194;7.268;2023-08-06T06:05:53;15.50;99.90
49218;DHT22;35045;51.194;7.268;2023-08-06T06:08:19;15.60;99.90
49218;DHT22;35045;51.194;7.268;2023-08-06T06:10:45;15.60;99.90
49218;DHT22;35045;51.194;7.268;2023-08-06T06:13:11;15.50;99.90
49218;DHT22;35045;51.194;7.268;2023-08-06T06:15:37;15.60;99.90
49218;DHT22;35045;51.194;7.268;2023-08-06T06:18:03;15.60;99.90
49218;DHT22;35045;51.194;7.268;2023-08-06T06:20:31;15.60;99.90
49218;DHT22;35045;51.194;7.268;2023-08-06T06:22:57;15.60;99.90
49218;DHT22;35045;51.194;7.268;2023-08-06T06:25:23;15.60;99.90
49218;DHT22;35045;51.194;7.268;2023-08-06T06:27:49;15.70;99.90
49218;DHT22;35045;51.194;7.268;2023-08-06T06:30:15;15.70;99.90
49218;DHT22;35045;51.194;7.268;2023-08-06T06:32:41;15.70;99.90
49218;DHT22;35045;51.194;7.268;2023-08-06T06:35:08;15.70;99.90
49218;DHT22;35045;51.194;7.268;2023-08-06T06:37:34;15.80;99.90
49218;DHT22;35045;51.194;7.268;2023-08-06T06:40:00;15.80;99.90
49218;DHT22;35045;51.194;7.268;2023-08-06T06:42:26;15.80;99.90
49218;DHT22;35045;51.194;7.268;2023-08-06T06:44:52;15.90;99.90
49218;DHT22;35045;51.194;7.268;2023-08-06T06:47:18;15.90;99.90
49218;DHT22;35045;51.194;7.268;2023-08-06T06:49:44;16.00;99.90
49218;DHT22;35045;51.194;7.268;2023-08-06T06:52:10;16.00;99.90
49218;DHT22;35045;51.194;7.268;2023-08-06T06:54:37;16.10;99.90
49218;DHT22;35045;51.194;7.268;2023-08-06T06:57:03;16.10;99.90
49218;DHT22;35045;51.194;7.268;2023-08-06T06:59:29;16.20;99.90
49218;DHT22;35045;51.194;7.268;2023-08-06T07:01:55;16.30;99.90
49218;DHT22;35045;51.194;7.268;2023-08-06T07:04:21;16.30;99.90
49218;DHT22;35045;51.194;7.268;2023-08-06T07:06:47;16.40;99.90
49218;DHT22;35045;51.194;7.268;2023-08-06T07:09:13;16.50;99.90
49218;DHT22;35045;51.194;7.268;2023-08-06T07:11:39;16.60;99.90
49218;DHT22;35045;51.194;7.268;2023-08-06T07:14:05;16.70;99.90
49218;DHT22;35045;51.194;7.268;2023-08-06T07:16:31;16.60;99.90
49218;DHT22;35045;51.194;7.268;2023-08-06T07:18:57;16.60;99.90
49218;DHT22;35045;51.194;7.268;2023-08-06T07:21:23;16.60;99.90
49218;DHT22;35045;51.194;7.268;2023-08-06T07:23:50;16.70;99.90
49218;DHT22;35045;51.194;7.268;2023-08-06T07:26:16;16.70;99.90
49218;DHT22;35045;51.194;7.268;2023-08-06T07:28:42;16.70;99.90
49218;DHT22;35045;51.194;7.268;2023-08-06T07:31:08;16.70;99.90
49218;DHT22;35045;51.194;7.268;2023-08-06T07:33:34;16.60;99.90
49218;DHT22;35045;51.194;7.268;2023-08-06T07:36:07;16.60;99.90
49218;DHT22;35045;51.194;7.268;2023-08-06T07:38:33;16.50;99.90
49218;DHT22;35045;51.194;7.268;2023-08-06T07:41:01;16.50;99.90
49218;DHT22;35045;51.194;7.268;2023-08-06T07:43:28;16.60;99.90
49218;DHT22;35045;51.194;7.268;2023-08-06T07:45:57;16.60;99.90
49218;DHT22;35045;51.194;7.268;2023-08-06T07:48:23;16.70;99.90
49218;DHT22;35045;51.194;7.268;2023-08-06T07:50:53;16.80;99.90
49218;DHT22;35045;51.194;7.268;2023-08-06T07:53:22;16.90;99.90
49218;DHT22;35045;51.194;7.268;2023-08-06T07:55:52;17.00;99.90
49218;DHT22;35045;51.194;7.268;2023-08-06T07:58:18;17.00;99.90
49218;DHT22;35045;51.194;7.268;2023-08-06T08:00:44;17.00;99.90
49218;DHT22;35045;51.194;7.268;2023-08-06T08:03:11;17.10;99.90
49218;DHT22;35045;51.194;7.268;2023-08-06T08:05:39;17.20;99.90
49218;DHT22;35045;51.194;7.268;2023-08-06T08:08:05;17.20;99.90
49218;DHT22;35045;51.194;7.268;2023-08-06T08:10:32;17.10;99.90
49218;DHT22;35045;51.194;7.268;2023-08-06T08:12:58;17.20;99.90
49218;DHT22;35045;51.194;7.268;2023-08-06T08:15:24;17.20;99.90
49218;DHT22;35045;51.194;7.268;2023-08-06T08:17:52;17.20;99.90
49218;DHT22;35045;51.194;7.268;2023-08-06T08:20:18;17.20;99.90
49218;DHT22;35045;51.194;7.268;2023-08-06T08:22:44;17.40;99.90
49218;DHT22;35045;51.194;7.268;2023-08-06T08:25:10;17.40;99.90
49218;DHT22;35045;51.194;7.268;2023-08-06T08:27:36;17.40;99.90
49218;DHT22;35045;51.194;7.268;2023-08-06T08:30:02;17.50;99.90
49218;DHT22;35045;51.194;7.268;2023-08-06T08:32:29;17.50;99.90
49218;DHT22;35045;51.194;7.268;2023-08-06T08:34:55;17.60;99.90
49218;DHT22;35045;51.194;7.268;2023-08-06T08:37:21;17.70;99.90
49218;DHT22;35045;51.194;7.268;2023-08-06T08:39:47;17.70;99.90
49218;DHT22;35045;51.194;7.268;2023-08-06T08:42:13;17.70;99.90
49218;DHT22;35045;51.194;7.268;2023-08-06T08:44:39;17.70;99.90
49218;DHT22;35045;51.194;7.268;2023-08-06T08:47:06;17.80;99.90
49218;DHT22;35045;51.194;7.268;2023-08-06T08:49:32;17.90;99.90
49218;DHT22;35045;51.194;7.268;2023-08-06T08:51:58;18.00;99.90
49218;DHT22;35045;51.194;7.268;2023-08-06T08:54:25;18.10;99.90
49218;DHT22;35045;51.194;7.268;2023-08-06T08:56:52;18.40;99.90
49218;DHT22;35045;51.194;7.268;2023-08-06T08:59:18;18.60;99.90
49218;DHT22;35045;51.194;7.268;2023-08-06T09:01:45;18.90;99.90
49218;DHT22;35045;51.194;7.268;2023-08-06T09:04:12;19.10;99.90
49218;DHT22;35045;51.194;7.268;2023-08-06T09:06:38;18.90;99.90
49218;DHT22;35045;51.194;7.268;2023-08-06T09:09:08;18.90;99.90
49218;DHT22;35045;51.194;7.268;2023-08-06T09:11:36;18.70;99.90
49218;DHT22;35045;51.194;7.268;2023-08-06T09:14:06;18.60;99.90
49218;DHT22;35045;51.194;7.268;2023-08-06T09:16:34;18.50;99.90
49218;DHT22;35045;51.194;7.268;2023-08-06T09:19:09;18.40;99.90
49218;DHT22;35045;51.194;7.268;2023-08-06T09:21:37;18.40;99.90
49218;DHT22;35045;51.194;7.268;2023-08-06T09:24:07;18.50;99.90
49218;DHT22;35045;51.194;7.268;2023-08-06T09:26:33;18.60;99.90
49218;DHT22;35045;51.194;7.268;2023-08-06T09:28:59;18.70;99.90
49218;DHT22;35045;51.194;7.268;2023-08-06T09:31:32;18.90;99.90
49218;DHT22;35045;51.194;7.268;2023-08-06T09:33:59;19.00;99.90
49218;DHT22;35045;51.194;7.268;2023-08-06T09:36:26;18.90;99.90
49218;DHT22;35045;51.194;7.268;2023-08-06T09:38:52;18.80;99.90
49218;DHT22;35045;51.194;7.268;2023-08-06T09:41:28;18.70;99.90
49218;DHT22;35045;51.194;7.268;2023-08-06T09:43:57;18.50;99.90
49218;DHT22;35045;51.194;7.268;2023-08-06T09:46:23;18.30;99.90
49218;DHT22;35045;51.194;7.268;2023-08-06T09:48:50;18.20;99.90
49218;DHT22;35045;51.194;7.268;2023-08-06T09:51:16;18.10;99.90
49218;DHT22;35045;51.194;7.268;2023-08-06T09:53:42;18.10;99.90
49218;DHT22;35045;51.194;7.268;2023-08-06T09:56:09;18.20;99.90
49218;DHT22;35045;51.194;7.268;2023-08-06T09:58:35;18.20;99.90
49218;DHT22;35045;51.194;7.268;2023-08-06T10:01:02;18.10;99.90
49218;DHT22;35045;51.194;7.268;2023-08-06T10:03:29;18.10;99.90
49218;DHT22;35045;51.194;7.268;2023-08-06T10:05:56;18.10;99.90
49218;DHT22;35045;51.194;7.268;2023-08-06T10:08:23;18.10;99.90
49218;DHT22;35045;51.194;7.268;2023-08-06T10:10:49;18.20;99.90
49218;DHT22;35045;51.194;7.268;2023-08-06T10:13:15;18.20;99.90
49218;DHT22;35045;51.194;7.268;2023-08-06T10:15:42;18.10;99.90
49218;DHT22;35045;51.194;7.268;2023-08-06T10:18:08;18.10;99.90
49218;DHT22;35045;51.194;7.268;2023-08-06T10:20:35;18.00;99.90
49218;DHT22;35045;51.194;7.268;2023-08-06T10:23:04;17.80;99.90
49218;DHT22;35045;51.194;7.268;2023-08-06T10:25:34;17.80;99.90
49218;DHT22;35045;51.194;7.268;2023-08-06T10:28:07;17.80;99.90
49218;DHT22;35045;51.194;7.268;2023-08-06T10:30:34;17.70;99.90
49218;DHT22;35045;51.194;7.268;2023-08-06T10:33:07;17.60;99.90
49218;DHT22;35045;51.194;7.268;2023-08-06T10:35:37;17.60;99.90
49218;DHT22;35045;51.194;7.268;2023-08-06T10:38:10;17.60;99.90
49218;DHT22;35045;51.194;7.268;2023-08-06T10:40:37;17.50;99.90
49218;DHT22;35045;51.194;7.268;2023-08-06T10:43:04;17.40;99.90
49218;DHT22;35045;51.194;7.268;2023-08-06T10:45:35;17.40;99.90
49218;DHT22;35045;51.194;7.268;2023-08-06T10:48:02;17.30;99.90
49218;DHT22;35045;51.194;7.268;2023-08-06T10:50:28;17.20;99.90
49218;DHT22;35045;51.194;7.268;2023-08-06T10:52:56;17.30;99.90
49218;DHT22;35045;51.194;7.268;2023-08-06T10:55:28;17.40;99.90
49218;DHT22;35045;51.194;7.268;2023-08-06T10:57:55;17.30;99.90
49218;DHT22;35045;51.194;7.268;2023-08-06T11:00:22;17.20;99.90
49218;DHT22;35045;51.194;7.268;2023-08-06T11:02:49;17.10;99.90
49218;DHT22;35045;51.194;7.268;2023-08-06T11:05:16;17.00;99.90
49218;DHT22;35045;51.194;7.268;2023-08-06T11:07:43;17.00;99.90
49218;DHT22;35045;51.194;7.268;2023-08-06T11:10:10;16.90;99.90
49218;DHT22;35045;51.194;7.268;2023-08-06T11:12:37;16.80;99.90
49218;DHT22;35045;51.194;7.268;2023-08-06T11:15:03;16.80;99.90
49218;DHT22;35045;51.194;7.268;2023-08-06T11:17:30;16.70;99.90
49218;DHT22;35045;51.194;7.268;2023-08-06T11:20:03;16.50;99.90
49218;DHT22;35045;51.194;7.268;2023-08-06T11:22:29;16.30;99.90
49218;DHT22;35045;51.194;7.268;2023-08-06T11:24:56;16.00;99.90
49218;DHT22;35045;51.194;7.268;2023-08-06T11:27:23;15.90;99.90
49218;DHT22;35045;51.194;7.268;2023-08-06T11:29:49;15.80;99.90
49218;DHT22;35045;51.194;7.268;2023-08-06T11:32:15;15.60;99.90
49218;DHT22;35045;51.194;7.268;2023-08-06T11:34:42;15.50;99.90
49218;DHT22;35045;51.194;7.268;2023-08-06T11:37:09;15.40;99.90
49218;DHT22;35045;51.194;7.268;2023-08-06T11:39:36;15.30;99.90
49218;DHT22;35045;51.194;7.268;2023-08-06T11:42:03;15.20;99.90
49218;DHT22;35045;51.194;7.268;2023-08-06T11:44:30;15.20;99.90
49218;DHT22;35045;51.194;7.268;2023-08-06T11:46:58;15.00;99.90
49218;DHT22;35045;51.194;7.268;2023-08-06T11:52:09;14.60;99.90
49218;DHT22;35045;51.194;7.268;2023-08-06T11:54:35;14.60;99.90
49218;DHT22;35045;51.194;7.268;2023-08-06T11:57:04;14.50;99.90
49218;DHT22;35045;51.194;7.268;2023-08-06T11:59:31;14.40;99.90
49218;DHT22;35045;51.194;7.268;2023-08-06T12:01:57;14.40;99.90
49218;DHT22;35045;51.194;7.268;2023-08-06T12:04:24;14.40;99.90
49218;DHT22;35045;51.194;7.268;2023-08-06T12:06:50;14.40;99.90
49218;DHT22;35045;51.194;7.268;2023-08-06T12:09:16;14.30;99.90
49218;DHT22;35045;51.194;7.268;2023-08-06T12:11:43;14.30;99.90
49218;DHT22;35045;51.194;7.268;2023-08-06T12:14:09;14.30;99.90
49218;DHT22;35045;51.194;7.268;2023-08-06T12:16:35;14.40;99.90
49218;DHT22;35045;51.194;7.268;2023-08-06T12:19:02;14.30;99.90
49218;DHT22;35045;51.194;7.268;2023-08-06T12:21:28;14.40;99.90
49218;DHT22;35045;51.194;7.268;2023-08-06T12:23:54;14.30;99.90
49218;DHT22;35045;51.194;7.268;2023-08-06T12:26:20;14.30;99.90
49218;DHT22;35045;51.194;7.268;2023-08-06T12:28:46;14.30;99.90
49218;DHT22;35045;51.194;7.268;2023-08-06T12:31:12;14.30;99.90
49218;DHT22;35045;51.194;7.268;2023-08-06T12:33:38;14.30;99.90
49218;DHT22;35045;51.194;7.268;2023-08-06T12:36:04;14.30;99.90
49218;DHT22;35045;51.194;7.268;2023-08-06T12:38:30;14.30;99.90
49218;DHT22;35045;51.194;7.268;2023-08-06T12:40:59;14.30;99.90
49218;DHT22;35045;51.194;7.268;2023-08-06T12:43:25;14.30;99.90
49218;DHT22;35045;51.194;7.268;2023-08-06T12:45:51;14.30;99.90
49218;DHT22;35045;51.194;7.268;2023-08-06T12:48:17;14.20;99.90
49218;DHT22;35045;51.194;7.268;2023-08-06T12:50:45;14.20;99.90
49218;DHT22;35045;51.194;7.268;2023-08-06T12:53:11;14.20;99.90
49218;DHT22;35045;51.194;7.268;2023-08-06T12:55:37;14.20;99.90
49218;DHT22;35045;51.194;7.268;2023-08-06T12:58:03;14.20;99.90
49218;DHT22;35045;51.194;7.268;2023-08-06T13:00:29;14.20;99.90
49218;DHT22;35045;51.194;7.268;2023-08-06T13:02:55;14.20;99.90
49218;DHT22;35045;51.194;7.268;2023-08-06T13:05:22;14.30;99.90
49218;DHT22;35045;51.194;7.268;2023-08-06T13:07:48;14.20;99.90
49218;DHT22;35045;51.194;7.268;2023-08-06T13:10:14;14.30;99.90
49218;DHT22;35045;51.194;7.268;2023-08-06T13:12:40;14.30;99.90
49218;DHT22;35045;51.194;7.268;2023-08-06T13:15:06;14.30;99.90
49218;DHT22;35045;51.194;7.268;2023-08-06T13:17:32;14.20;99.90
49218;DHT22;35045;51.194;7.268;2023-08-06T13:19:58;14.20;99.90
49218;DHT22;35045;51.194;7.268;2023-08-06T13:22:24;14.30;99.90
49218;DHT22;35045;51.194;7.268;2023-08-06T13:24:50;14.40;99.90
49218;DHT22;35045;51.194;7.268;2023-08-06T13:27:16;14.40;99.90
49218;DHT22;35045;51.194;7.268;2023-08-06T13:29:42;14.40;99.90
49218;DHT22;35045;51.194;7.268;2023-08-06T13:32:08;14.40;99.90
49218;DHT22;35045;51.194;7.268;2023-08-06T13:34:35;14.40;99.90
49218;DHT22;35045;51.194;7.268;2023-08-06T13:37:01;14.30;99.90
49218;DHT22;35045;51.194;7.268;2023-08-06T13:39:27;14.30;99.90
49218;DHT22;35045;51.194;7.268;2023-08-06T13:41:52;14.20;99.90
49218;DHT22;35045;51.194;7.268;2023-08-06T13:44:19;14.30;99.90
49218;DHT22;35045;51.194;7.268;2023-08-06T13:46:45;14.30;99.90
49218;DHT22;35045;51.194;7.268;2023-08-06T13:49:11;14.30;99.90
49218;DHT22;35045;51.194;7.268;2023-08-06T13:51:37;14.20;99.90
49218;DHT22;35045;51.194;7.268;2023-08-06T13:54:04;14.30;99.90
49218;DHT22;35045;51.194;7.268;2023-08-06T13:56:30;14.30;99.90
49218;DHT22;35045;51.194;7.268;2023-08-06T13:58:57;14.30;99.90
49218;DHT22;35045;51.194;7.268;2023-08-06T14:01:23;14.20;99.90
49218;DHT22;35045;51.194;7.268;2023-08-06T14:03:54;14.20;99.90
49218;DHT22;35045;51.194;7.268;2023-08-06T14:06:20;14.10;99.90
49218;DHT22;35045;51.194;7.268;2023-08-06T14:08:46;14.20;99.90
49218;DHT22;35045;51.194;7.268;2023-08-06T14:11:12;14.10;99.90
49218;DHT22;35045;51.194;7.268;2023-08-06T14:13:39;14.10;99.90
49218;DHT22;35045;51.194;7.268;2023-08-06T14:16:05;14.00;99.90
49218;DHT22;35045;51.194;7.268;2023-08-06T14:18:31;13.80;99.90
49218;DHT22;35045;51.194;7.268;2023-08-06T14:20:57;13.80;99.90
49218;DHT22;35045;51.194;7.268;2023-08-06T14:23:23;13.80;99.90
49218;DHT22;35045;51.194;7.268;2023-08-06T14:25:49;13.80;99.90
49218;DHT22;35045;51.194;7.268;2023-08-06T14:28:15;13.90;99.90
49218;DHT22;35045;51.194;7.268;2023-08-06T14:30:41;13.90;99.90
49218;DHT22;35045;51.194;7.268;2023-08-06T14:33:07;13.90;99.90
49218;DHT22;35045;51.194;7.268;2023-08-06T14:35:41;13.90;99.90
49218;DHT22;35045;51.194;7.268;2023-08-06T14:38:07;13.90;99.90
49218;DHT22;35045;51.194;7.268;2023-08-06T14:40:33;13.90;99.90
49218;DHT22;35045;51.194;7.268;2023-08-06T14:43:05;14.00;99.90
49218;DHT22;35045;51.194;7.268;2023-08-06T14:45:31;13.90;99.90
49218;DHT22;35045;51.194;7.268;2023-08-06T14:47:57;13.80;99.90
49218;DHT22;35045;51.194;7.268;2023-08-06T14:50:23;13.80;99.90
49218;DHT22;35045;51.194;7.268;2023-08-06T14:52:49;13.80;99.90
49218;DHT22;35045;51.194;7.268;2023-08-06T14:55:24;13.80;99.90
49218;DHT22;35045;51.194;7.268;2023-08-06T14:57:51;13.90;99.90
49218;DHT22;35045;51.194;7.268;2023-08-06T15:00:17;13.90;99.90
49218;DHT22;35045;51.194;7.268;2023-08-06T15:02:43;13.90;99.90
49218;DHT22;35045;51.194;7.268;2023-08-06T15:05:09;13.90;99.90
49218;DHT22;35045;51.194;7.268;2023-08-06T15:07:35;13.90;99.90
49218;DHT22;35045;51.194;7.268;2023-08-06T15:10:05;13.90;99.90
49218;DHT22;35045;51.194;7.268;2023-08-06T15:12:45;13.90;99.90
49218;DHT22;35045;51.194;7.268;2023-08-06T15:15:11;13.90;99.90
49218;DHT22;35045;51.194;7.268;2023-08-06T15:17:37;14.00;99.90
49218;DHT22;35045;51.194;7.268;2023-08-06T15:20:03;13.90;99.90
49218;DHT22;35045;51.194;7.268;2023-08-06T15:22:30;14.00;99.90
49218;DHT22;35045;51.194;7.268;2023-08-06T15:25:02;14.00;99.90
49218;DHT22;35045;51.194;7.268;2023-08-06T15:27:28;14.00;99.90
49218;DHT22;35045;51.194;7.268;2023-08-06T15:29:54;14.00;99.90
49218;DHT22;35045;51.194;7.268;2023-08-06T15:32:21;14.00;99.90
49218;DHT22;35045;51.194;7.268;2023-08-06T15:34:48;14.10;99.90